Time;durP1;ratioP1;P1;durP2;ratioP2;P2;SDS_P1;SDS_P2;PMS_P1;PMS_P2;Temp;Humidity;BMP_temperature;BMP_pressure;BME280_temperature;BME280_humidity;BME280_pressure;Samples;Min_cycle;Max_cycle;Signal;HPM_P1;HPM_P2
2022/07/10 00:01:09;;;;;;;2.20;1.60;;;;;;;;;;103104;1313;22721;-29
2022/07/10 00:03:38;;;;;;;6.40;2.10;;;;;;;;;;103065;1313;22558;-28
2022/07/10 00:06:07;;;;;;;2.10;1.40;;;;;;;;;;103134;1320;22542;-28
2022/07/10 00:08:35;;;;;;;2.50;1.70;;;;;;;;;;103090;1313;22549;-24
2022/07/10 00:11:04;;;;;;;2.00;1.20;;;;;;;;;;103060;1314;22810;-26
2022/07/10 00:13:34;;;;;;;4.50;2.60;;;;;;;;;;103190;1323;22735;-28
2022/07/10 00:16:02;;;;;;;4.60;1.60;;;;;;;;;;103110;1313;22728;-28
2022/07/10 00:18:31;;;;;;;5.00;1.90;;;;;;;;;;103068;1322;22591;-24
2022/07/10 00:21:01;;;;;;;3.30;1.70;;;;;;;;;;103247;1314;22566;-28
2022/07/10 00:23:29;;;;;;;2.80;2.00;;;;;;;;;;103068;1320;22598;-23
2022/07/10 00:25:58;;;;;;;2.60;1.30;;;;;;;;;;103103;1313;22586;-28
2022/07/10 00:28:27;;;;;;;3.70;1.40;;;;;;;;;;103128;1323;22572;-23
2022/07/10 00:30:56;;;;;;;1.80;1.50;;;;;;;;;;103189;1314;22572;-24
2022/07/10 00:33:25;;;;;;;1.80;1.30;;;;;;;;;;103187;1326;23053;-29
2022/07/10 00:35:54;;;;;;;2.40;1.60;;;;;;;;;;103210;1320;22567;-25
2022/07/10 00:38:22;;;;;;;4.20;1.40;;;;;;;;;;103190;1320;22955;-24
2022/07/10 00:40:51;;;;;;;2.70;1.90;;;;;;;;;;103285;1313;22831;-25
2022/07/10 00:43:20;;;;;;;3.70;1.60;;;;;;;;;;103205;1320;22715;-29
2022/07/10 00:45:49;;;;;;;2.50;1.50;;;;;;;;;;103247;1320;22565;-29
2022/07/10 00:48:18;;;;;;;1.70;1.00;;;;;;;;;;103172;1314;22779;-28
2022/07/10 00:50:47;;;;;;;4.50;1.10;;;;;;;;;;103192;1314;22712;-25
2022/07/10 00:53:17;;;;;;;4.10;1.50;;;;;;;;;;103278;1313;22764;-30
2022/07/10 00:55:45;;;;;;;1.20;1.10;;;;;;;;;;103200;1314;22708;-25
2022/07/10 00:58:14;;;;;;;2.30;1.20;;;;;;;;;;103304;1320;22600;-25
2022/07/10 01:00:43;;;;;;;2.00;1.00;;;;;;;;;;103185;1313;22748;-28
2022/07/10 01:03:12;;;;;;;1.60;0.90;;;;;;;;;;103106;1325;22568;-24
2022/07/10 01:05:40;;;;;;;2.50;1.20;;;;;;;;;;103315;1320;22563;-28
2022/07/10 01:08:09;;;;;;;2.70;1.40;;;;;;;;;;103232;1313;22737;-25
2022/07/10 01:10:38;;;;;;;1.90;1.40;;;;;;;;;;103161;1314;22730;-25
2022/07/10 01:13:07;;;;;;;2.00;1.30;;;;;;;;;;103299;1323;22556;-28
2022/07/10 01:15:36;;;;;;;2.60;1.50;;;;;;;;;;103187;1314;22582;-30
2022/07/10 01:18:05;;;;;;;6.20;1.50;;;;;;;;;;103083;1325;22569;-28
2022/07/10 01:20:34;;;;;;;6.20;1.30;;;;;;;;;;103222;1323;22736;-25
2022/07/10 01:23:02;;;;;;;2.00;1.30;;;;;;;;;;103301;1323;22571;-27
2022/07/10 01:25:31;;;;;;;2.90;1.70;;;;;;;;;;103116;1320;22561;-25
2022/07/10 01:28:00;;;;;;;2.10;1.50;;;;;;;;;;103105;1326;22891;-27
2022/07/10 01:30:29;;;;;;;1.90;1.30;;;;;;;;;;103077;1314;22766;-24
2022/07/10 01:32:58;;;;;;;2.80;1.30;;;;;;;;;;103269;1326;22740;-24
2022/07/10 01:35:26;;;;;;;5.20;1.80;;;;;;;;;;103300;1313;22543;-24
2022/07/10 01:37:55;;;;;;;1.40;0.80;;;;;;;;;;103147;1313;22566;-28
2022/07/10 01:40:24;;;;;;;3.20;1.10;;;;;;;;;;103109;1313;22683;-28
2022/07/10 01:42:53;;;;;;;3.20;1.40;;;;;;;;;;103282;1323;22681;-25
2022/07/10 01:45:21;;;;;;;7.70;2.40;;;;;;;;;;103169;1313;22697;-31
2022/07/10 01:47:50;;;;;;;1.70;1.00;;;;;;;;;;103251;1323;22851;-29
2022/07/10 01:50:19;;;;;;;2.60;1.60;;;;;;;;;;103160;1323;22678;-25
2022/07/10 01:52:48;;;;;;;1.00;0.50;;;;;;;;;;103210;1323;25563;-30
2022/07/10 01:55:17;;;;;;;1.60;0.90;;;;;;;;;;103223;1314;22553;-24
2022/07/10 01:57:45;;;;;;;2.50;0.90;;;;;;;;;;103163;1323;22976;-24
2022/07/10 02:00:14;;;;;;;2.40;1.10;;;;;;;;;;103032;1320;22719;-24
2022/07/10 02:04:40;;;;;;;1.60;1.10;;;;;;;;;;103132;1323;22819;-29
2022/07/10 02:05:32;;;;;;;3.50;1.80;;;;;;;;;;103129;1320;22557;-28
2022/07/10 02:08:03;;;;;;;1.70;1.00;;;;;;;;;;103338;1323;22562;-24
2022/07/10 02:10:32;;;;;;;2.40;1.30;;;;;;;;;;103115;1323;22966;-24
2022/07/10 02:13:00;;;;;;;1.90;1.00;;;;;;;;;;103138;1321;23162;-24
2022/07/10 02:15:29;;;;;;;2.00;1.40;;;;;;;;;;103195;1313;23179;-25
2022/07/10 02:17:58;;;;;;;;;;;;;;;;;;103244;1323;22860;-28
2022/07/10 02:20:27;;;;;;;9.30;1.50;;;;;;;;;;103080;1314;23172;-24
2022/07/10 02:22:55;;;;;;;2.40;1.50;;;;;;;;;;103154;1320;22587;-23
2022/07/10 02:25:24;;;;;;;4.00;1.50;;;;;;;;;;103195;1314;22552;-24
2022/07/10 02:27:53;;;;;;;2.10;1.60;;;;;;;;;;103094;1326;22709;-28
2022/07/10 02:30:22;;;;;;;2.20;1.30;;;;;;;;;;103124;1312;22819;-28
2022/07/10 02:32:51;;;;;;;3.20;1.20;;;;;;;;;;103220;1326;22578;-28
2022/07/10 02:35:19;;;;;;;2.80;1.50;;;;;;;;;;103138;1320;22631;-29
2022/07/10 02:37:48;;;;;;;2.10;1.90;;;;;;;;;;103228;1320;22809;-25
2022/07/10 02:40:17;;;;;;;2.50;1.40;;;;;;;;;;103244;1313;22567;-25
2022/07/10 02:42:46;;;;;;;2.90;1.50;;;;;;;;;;103152;1323;22576;-25
2022/07/10 02:45:15;;;;;;;2.10;1.70;;;;;;;;;;103144;1314;22539;-28
2022/07/10 02:47:43;;;;;;;2.30;1.00;;;;;;;;;;103208;1325;22831;-25
2022/07/10 02:50:12;;;;;;;2.90;2.10;;;;;;;;;;103147;1314;22566;-23
2022/07/10 02:52:41;;;;;;;1.60;1.00;;;;;;;;;;103213;1320;23047;-29
2022/07/10 02:55:11;;;;;;;2.10;1.90;;;;;;;;;;103154;1313;22548;-29
2022/07/10 02:57:39;;;;;;;1.60;0.90;;;;;;;;;;103153;1323;22835;-26
2022/07/10 03:00:09;;;;;;;1.80;1.40;;;;;;;;;;103296;1313;22736;-25
2022/07/10 03:02:37;;;;;;;10.90;1.20;;;;;;;;;;103045;1320;22558;-25
2022/07/10 03:05:07;;;;;;;4.30;1.80;;;;;;;;;;103175;1313;22723;-30
2022/07/10 03:07:36;;;;;;;3.50;1.60;;;;;;;;;;103093;1314;22626;-28
2022/07/10 03:10:05;;;;;;;1.90;1.50;;;;;;;;;;103121;1319;22682;-24
2022/07/10 03:12:34;;;;;;;1.00;0.80;;;;;;;;;;103266;1320;22708;-28
2022/07/10 03:15:03;;;;;;;8.10;1.60;;;;;;;;;;103284;1313;22719;-30
2022/07/10 03:17:32;;;;;;;2.70;1.50;;;;;;;;;;103224;1320;22903;-29
2022/07/10 03:20:01;;;;;;;1.10;0.80;;;;;;;;;;103157;1323;22841;-24
2022/07/10 03:22:31;;;;;;;3.40;1.40;;;;;;;;;;103114;1326;22961;-23
2022/07/10 03:25:00;;;;;;;1.90;1.30;;;;;;;;;;103321;1325;22836;-26
2022/07/10 03:27:29;;;;;;;0.90;0.80;;;;;;;;;;103100;1320;22719;-26
2022/07/10 03:29:58;;;;;;;1.30;0.70;;;;;;;;;;103176;1313;22565;-25
2022/07/10 03:32:27;;;;;;;4.90;1.50;;;;;;;;;;103238;1320;22802;-29
2022/07/10 03:34:55;;;;;;;1.00;0.90;;;;;;;;;;103185;1320;22818;-28
2022/07/10 03:37:24;;;;;;;1.70;1.00;;;;;;;;;;103159;1320;22716;-28
2022/07/10 03:39:53;;;;;;;4.60;1.20;;;;;;;;;;103117;1313;22724;-28
2022/07/10 03:42:22;;;;;;;1.30;1.20;;;;;;;;;;103251;1323;22720;-28
2022/07/10 03:44:50;;;;;;;2.20;1.30;;;;;;;;;;103050;1314;22562;-28
2022/07/10 03:47:19;;;;;;;1.90;1.10;;;;;;;;;;103244;1326;22565;-28
2022/07/10 03:49:48;;;;;;;1.90;1.50;;;;;;;;;;103291;1320;22684;-29
2022/07/10 03:52:17;;;;;;;1.40;0.90;;;;;;;;;;103172;1320;22629;-28
2022/07/10 03:54:46;;;;;;;2.00;0.70;;;;;;;;;;103140;1316;22980;-27
2022/07/10 03:59:47;;;;;;;2.10;1.30;;;;;;;;;;103179;1323;22562;-25
2022/07/10 04:02:16;;;;;;;3.10;1.00;;;;;;;;;;103191;1313;22827;-28
2022/07/10 04:04:44;;;;;;;1.70;1.00;;;;;;;;;;102801;1313;434507;-27
2022/07/10 04:07:13;;;;;;;2.40;1.00;;;;;;;;;;103090;1320;22571;-28
2022/07/10 04:09:42;;;;;;;1.70;1.10;;;;;;;;;;103296;1320;22717;-30
2022/07/10 04:12:11;;;;;;;0.90;0.60;;;;;;;;;;103122;1323;22559;-25
2022/07/10 04:14:39;;;;;;;1.70;0.80;;;;;;;;;;103140;1313;25381;-24
2022/07/10 04:17:08;;;;;;;0.40;0.30;;;;;;;;;;103087;1323;22592;-28
2022/07/10 04:19:37;;;;;;;3.20;1.60;;;;;;;;;;103115;1313;22565;-29
2022/07/10 04:22:06;;;;;;;4.00;0.70;;;;;;;;;;103260;1323;22736;-28
2022/07/10 04:24:35;;;;;;;0.10;0.10;;;;;;;;;;103281;1313;22711;-28
2022/07/10 04:27:04;;;;;;;2.00;1.00;;;;;;;;;;103245;1320;22762;-28
2022/07/10 04:29:33;;;;;;;2.60;0.90;;;;;;;;;;103124;1320;22823;-29
2022/07/10 04:32:02;;;;;;;1.20;1.10;;;;;;;;;;103219;1324;22593;-28
2022/07/10 04:34:31;;;;;;;0.90;0.60;;;;;;;;;;103301;1314;22711;-29
2022/07/10 04:37:00;;;;;;;1.20;0.50;;;;;;;;;;103176;1320;22534;-29
2022/07/10 04:39:28;;;;;;;2.10;0.50;;;;;;;;;;103385;1320;22573;-28
2022/07/10 04:41:57;;;;;;;0.70;0.50;;;;;;;;;;103225;1323;23073;-24
2022/07/10 04:44:26;;;;;;;2.30;0.90;;;;;;;;;;103097;1323;22769;-24
2022/07/10 04:46:55;;;;;;;3.10;0.70;;;;;;;;;;103351;1313;22564;-25
2022/07/10 04:49:24;;;;;;;4.20;0.80;;;;;;;;;;103162;1320;22579;-29
2022/07/10 04:51:52;;;;;;;2.10;1.00;;;;;;;;;;103139;1320;22709;-24
2022/07/10 04:54:22;;;;;;;5.00;0.70;;;;;;;;;;103125;1320;26554;-28
2022/07/10 04:56:50;;;;;;;1.50;0.70;;;;;;;;;;103164;1320;22708;-30
2022/07/10 04:59:19;;;;;;;1.50;0.70;;;;;;;;;;103202;1324;22680;-29
2022/07/10 05:01:48;;;;;;;6.40;0.80;;;;;;;;;;103256;1314;22722;-27
2022/07/10 05:04:17;;;;;;;1.60;0.80;;;;;;;;;;103194;1313;22559;-26
2022/07/10 05:06:45;;;;;;;1.70;0.60;;;;;;;;;;103231;1313;22546;-26
2022/07/10 05:09:14;;;;;;;1.40;0.60;;;;;;;;;;103173;1323;22742;-29
2022/07/10 05:11:43;;;;;;;1.80;0.50;;;;;;;;;;103197;1313;22554;-29
2022/07/10 05:14:11;;;;;;;2.90;0.60;;;;;;;;;;103220;1323;22571;-29
2022/07/10 05:16:40;;;;;;;9.50;0.40;;;;;;;;;;103192;1319;22722;-24
2022/07/10 05:19:09;;;;;;;0.20;0.20;;;;;;;;;;103242;1323;22708;-30
2022/07/10 05:21:38;;;;;;;1.20;0.30;;;;;;;;;;103073;1314;22561;-28
2022/07/10 05:24:06;;;;;;;1.00;0.40;;;;;;;;;;103109;1323;22559;-28
2022/07/10 05:26:36;;;;;;;1.30;0.30;;;;;;;;;;103237;1313;22663;-28
2022/07/10 05:29:05;;;;;;;2.10;0.30;;;;;;;;;;103150;1320;22821;-28
2022/07/10 05:31:33;;;;;;;0.30;0.10;;;;;;;;;;103197;1314;22562;-25
2022/07/10 05:34:02;;;;;;;2.90;0.50;;;;;;;;;;103360;1323;22862;-28
2022/07/10 05:36:31;;;;;;;2.30;0.80;;;;;;;;;;103167;1323;22710;-29
2022/07/10 05:39:00;;;;;;;0.70;0.30;;;;;;;;;;103068;1323;22549;-31
2022/07/10 05:41:28;;;;;;;5.70;0.60;;;;;;;;;;103306;1297;23078;-24
2022/07/10 05:43:57;;;;;;;0.40;0.20;;;;;;;;;;103207;1323;22794;-28
2022/07/10 05:46:26;;;;;;;4.30;0.40;;;;;;;;;;103098;1314;22691;-29
2022/07/10 05:48:55;;;;;;;1.50;0.30;;;;;;;;;;103268;1323;22565;-24
2022/07/10 05:51:24;;;;;;;7.20;0.60;;;;;;;;;;103394;1320;22869;-28
2022/07/10 05:53:53;;;;;;;1.80;0.40;;;;;;;;;;103186;1323;22550;-25
2022/07/10 05:56:22;;;;;;;1.00;0.10;;;;;;;;;;103158;1313;22687;-23
2022/07/10 05:58:50;;;;;;;2.50;0.30;;;;;;;;;;103145;1320;22625;-29
2022/07/10 06:01:19;;;;;;;2.20;0.20;;;;;;;;;;102490;1320;1003682;-29
2022/07/10 06:03:49;;;;;;;3.70;0.50;;;;;;;;;;103147;1320;22856;-29
2022/07/10 06:06:18;;;;;;;1.70;0.30;;;;;;;;;;103135;1313;22857;-26
2022/07/10 06:08:46;;;;;;;0.80;0.20;;;;;;;;;;103208;1323;22955;-29
2022/07/10 06:11:16;;;;;;;2.30;0.40;;;;;;;;;;103172;1318;22678;-27
2022/07/10 06:13:44;;;;;;;1.80;0.30;;;;;;;;;;103109;1320;22623;-24
2022/07/10 06:16:13;;;;;;;3.30;0.40;;;;;;;;;;103111;1320;22687;-28
2022/07/10 06:18:42;;;;;;;10.00;0.40;;;;;;;;;;103195;1323;23181;-25
2022/07/10 06:21:11;;;;;;;2.30;0.40;;;;;;;;;;103230;1313;22798;-28
2022/07/10 06:23:39;;;;;;;2.60;0.60;;;;;;;;;;103204;1323;22682;-30
2022/07/10 06:26:08;;;;;;;1.90;0.20;;;;;;;;;;103198;1323;22718;-28
2022/07/10 06:28:39;;;;;;;3.20;0.60;;;;;;;;;;103189;1313;22569;-28
2022/07/10 06:31:07;;;;;;;2.60;0.40;;;;;;;;;;103227;1320;23066;-25
2022/07/10 06:33:36;;;;;;;3.40;0.40;;;;;;;;;;103123;1313;22582;-23
2022/07/10 06:36:05;;;;;;;1.40;0.20;;;;;;;;;;103317;1314;22723;-24
2022/07/10 06:38:34;;;;;;;11.20;0.50;;;;;;;;;;103208;1320;22727;-28
2022/07/10 06:41:03;;;;;;;1.60;0.10;;;;;;;;;;103195;1314;22564;-30
2022/07/10 06:43:32;;;;;;;3.60;0.30;;;;;;;;;;103170;1320;22812;-24
2022/07/10 06:46:01;;;;;;;0.40;0.20;;;;;;;;;;103226;1313;23025;-29
2022/07/10 06:48:29;;;;;;;2.90;0.30;;;;;;;;;;103205;1323;24384;-27
2022/07/10 06:50:58;;;;;;;1.80;0.30;;;;;;;;;;103245;1320;22719;-31
2022/07/10 06:53:27;;;;;;;1.10;0.10;;;;;;;;;;103154;1323;22825;-28
2022/07/10 06:55:56;;;;;;;5.60;1.20;;;;;;;;;;103225;1322;22835;-27
2022/07/10 06:58:24;;;;;;;1.60;0.40;;;;;;;;;;103243;1320;22670;-28
2022/07/10 07:00:53;;;;;;;2.10;0.20;;;;;;;;;;103270;1314;24052;-25
2022/07/10 07:03:22;;;;;;;1.50;0.20;;;;;;;;;;103119;1323;22723;-24
2022/07/10 07:05:51;;;;;;;1.00;0.20;;;;;;;;;;103184;1313;22977;-27
2022/07/10 07:08:20;;;;;;;4.80;0.20;;;;;;;;;;103213;1323;22711;-29
2022/07/10 07:10:49;;;;;;;2.30;0.20;;;;;;;;;;103186;1320;22857;-28
2022/07/10 07:13:18;;;;;;;2.10;0.20;;;;;;;;;;103307;1314;22817;-27
2022/07/10 07:15:57;;;;;;;5.60;0.30;;;;;;;;;;103305;1320;25157;-26
2022/07/10 07:18:37;;;;;;;0.40;0.20;;;;;;;;;;103115;1313;22546;-24
2022/07/10 07:23:38;;;;;;;2.90;0.30;;;;;;;;;;103201;1320;22860;-29
2022/07/10 07:26:07;;;;;;;6.10;0.80;;;;;;;;;;103176;1320;22705;-28
2022/07/10 07:28:35;;;;;;;1.60;0.30;;;;;;;;;;102406;1324;1002972;-30
2022/07/10 07:31:04;;;;;;;2.70;0.50;;;;;;;;;;103292;1314;22972;-28
2022/07/10 07:33:33;;;;;;;1.10;0.20;;;;;;;;;;103070;1320;22717;-24
2022/07/10 07:36:02;;;;;;;2.00;0.20;;;;;;;;;;103241;1313;22577;-25
2022/07/10 07:38:31;;;;;;;0.10;0.10;;;;;;;;;;103313;1320;24439;-29
2022/07/10 07:41:00;;;;;;;1.40;0.50;;;;;;;;;;103196;1323;22716;-28
2022/07/10 07:43:29;;;;;;;4.60;0.50;;;;;;;;;;103161;1320;23020;-24
2022/07/10 07:45:58;;;;;;;1.20;0.30;;;;;;;;;;103139;1323;22657;-24
2022/07/10 07:48:27;;;;;;;1.10;0.10;;;;;;;;;;103291;1323;23173;-25
2022/07/10 07:50:55;;;;;;;3.30;0.10;;;;;;;;;;103172;1323;22580;-25
2022/07/10 07:53:24;;;;;;;1.50;0.30;;;;;;;;;;103204;1320;23290;-25
2022/07/10 07:55:54;;;;;;;2.60;0.40;;;;;;;;;;103314;1328;23957;-24
2022/07/10 07:58:23;;;;;;;2.10;0.70;;;;;;;;;;103189;1320;22574;-24
2022/07/10 08:00:52;;;;;;;1.80;0.40;;;;;;;;;;103272;1320;22719;-24
2022/07/10 08:03:21;;;;;;;5.00;0.30;;;;;;;;;;103293;1320;22570;-28
2022/07/10 08:05:50;;;;;;;1.10;0.50;;;;;;;;;;103169;1314;22712;-25
2022/07/10 08:08:19;;;;;;;0.40;0.30;;;;;;;;;;103144;1321;22593;-28
2022/07/10 08:10:48;;;;;;;0.40;0.30;;;;;;;;;;103329;1314;22733;-28
2022/07/10 08:13:17;;;;;;;1.80;0.60;;;;;;;;;;103150;1313;22721;-30
2022/07/10 08:15:46;;;;;;;1.20;0.30;;;;;;;;;;103191;1314;22553;-28
2022/07/10 08:18:14;;;;;;;1.30;0.40;;;;;;;;;;103346;1320;23054;-28
2022/07/10 08:20:43;;;;;;;6.60;0.20;;;;;;;;;;103241;1319;22564;-25
2022/07/10 08:23:12;;;;;;;1.60;0.40;;;;;;;;;;103145;1323;22859;-25
2022/07/10 08:25:41;;;;;;;1.80;0.30;;;;;;;;;;103130;1313;22546;-24
2022/07/10 08:28:11;;;;;;;0.10;0.00;;;;;;;;;;103169;1323;22539;-24
2022/07/10 08:30:41;;;;;;;4.70;0.40;;;;;;;;;;103164;1323;22561;-25
2022/07/10 08:33:10;;;;;;;2.20;0.30;;;;;;;;;;103141;1320;24289;-25
2022/07/10 08:35:40;;;;;;;0.60;0.30;;;;;;;;;;103313;1314;22692;-24
2022/07/10 08:38:09;;;;;;;0.00;0.00;;;;;;;;;;103139;1321;25992;-23
2022/07/10 08:40:37;;;;;;;0.70;0.20;;;;;;;;;;103164;1323;22489;-29
2022/07/10 08:43:06;;;;;;;1.70;0.50;;;;;;;;;;103164;1323;22985;-28
2022/07/10 08:45:35;;;;;;;3.10;0.40;;;;;;;;;;103213;1320;23278;-26
2022/07/10 08:48:05;;;;;;;3.90;0.20;;;;;;;;;;103214;1320;22585;-24
2022/07/10 08:50:37;;;;;;;1.80;0.40;;;;;;;;;;103158;1314;22866;-24
2022/07/10 08:53:06;;;;;;;1.90;0.20;;;;;;;;;;103194;1314;22599;-30
2022/07/10 08:55:35;;;;;;;2.90;0.60;;;;;;;;;;103291;1317;22569;-25
2022/07/10 08:58:04;;;;;;;0.90;0.10;;;;;;;;;;103242;1320;23150;-29
2022/07/10 09:00:33;;;;;;;5.80;0.20;;;;;;;;;;103159;1320;22879;-29
2022/07/10 09:03:02;;;;;;;0.40;0.10;;;;;;;;;;103162;1320;22582;-25
2022/07/10 09:05:31;;;;;;;0.40;0.20;;;;;;;;;;103135;1313;22863;-29
2022/07/10 09:08:00;;;;;;;2.50;0.40;;;;;;;;;;103286;1320;23185;-30
2022/07/10 09:10:29;;;;;;;1.50;0.40;;;;;;;;;;103168;1313;22561;-28
2022/07/10 09:12:58;;;;;;;0.10;0.10;;;;;;;;;;102601;1314;1003595;-26
2022/07/10 09:15:31;;;;;;;0.30;0.10;;;;;;;;;;103190;1314;22578;-24
2022/07/10 09:18:02;;;;;;;3.10;0.20;;;;;;;;;;103157;1322;23072;-25
2022/07/10 09:20:32;;;;;;;1.40;0.20;;;;;;;;;;103130;1320;25265;-29
2022/07/10 09:23:04;;;;;;;1.10;0.40;;;;;;;;;;103328;1320;25423;-30
2022/07/10 09:25:34;;;;;;;0.90;0.20;;;;;;;;;;103266;1320;22712;-28
2022/07/10 09:28:05;;;;;;;0.10;0.10;;;;;;;;;;103112;1320;22711;-25
2022/07/10 09:30:34;;;;;;;0.50;0.10;;;;;;;;;;103157;1320;25355;-32
2022/07/10 09:33:07;;;;;;;1.00;0.30;;;;;;;;;;102979;1323;23208;-25
2022/07/10 09:38:08;;;;;;;2.90;0.20;;;;;;;;;;103269;1314;22865;-25
2022/07/10 09:40:36;;;;;;;1.70;0.30;;;;;;;;;;103115;1313;22567;-30
2022/07/10 09:43:05;;;;;;;2.80;0.60;;;;;;;;;;103240;1323;22716;-23
2022/07/10 09:45:35;;;;;;;2.40;0.40;;;;;;;;;;103126;1313;22599;-28
2022/07/10 09:48:04;;;;;;;0.30;0.10;;;;;;;;;;103160;1320;24411;-27
2022/07/10 09:50:34;;;;;;;9.20;0.10;;;;;;;;;;103159;1320;22555;-25
2022/07/10 09:53:03;;;;;;;3.80;0.80;;;;;;;;;;103197;1321;22704;-28
2022/07/10 09:55:34;;;;;;;1.30;0.10;;;;;;;;;;103291;1314;22596;-30
2022/07/10 09:58:03;;;;;;;1.20;0.30;;;;;;;;;;103175;1320;25404;-25
2022/07/10 10:00:33;;;;;;;2.20;0.30;;;;;;;;;;103174;1314;22701;-25
2022/07/10 10:03:11;;;;;;;2.60;0.30;;;;;;;;;;103131;1314;22718;-24
2022/07/10 10:05:52;;;;;;;0.80;0.20;;;;;;;;;;103151;1320;22837;-28
2022/07/10 10:08:25;;;;;;;5.20;0.20;;;;;;;;;;103331;1320;22689;-25
2022/07/10 10:10:53;;;;;;;1.20;0.30;;;;;;;;;;103187;1320;22584;-28
2022/07/10 10:13:23;;;;;;;1.30;0.20;;;;;;;;;;103282;1323;23043;-30
2022/07/10 10:15:52;;;;;;;4.20;0.20;;;;;;;;;;102438;1320;1003848;-28
2022/07/10 10:18:21;;;;;;;0.00;0.00;;;;;;;;;;103339;1320;22832;-24
2022/07/10 10:20:51;;;;;;;5.90;0.40;;;;;;;;;;103166;1314;22548;-29
2022/07/10 10:23:21;;;;;;;2.00;0.20;;;;;;;;;;103112;1320;22567;-29
2022/07/10 10:25:50;;;;;;;1.40;0.60;;;;;;;;;;103326;1313;22589;-25
2022/07/10 10:28:23;;;;;;;3.90;1.60;;;;;;;;;;103400;1320;22708;-24
2022/07/10 10:30:53;;;;;;;6.60;1.90;;;;;;;;;;103166;1321;22575;-28
2022/07/10 10:33:25;;;;;;;2.70;0.60;;;;;;;;;;103178;1320;22967;-29
2022/07/10 10:35:55;;;;;;;1.80;0.30;;;;;;;;;;103203;1321;22824;-29
2022/07/10 10:38:36;;;;;;;3.90;0.50;;;;;;;;;;103132;1326;22873;-29
2022/07/10 10:41:09;;;;;;;0.70;0.10;;;;;;;;;;103065;1322;22684;-28
2022/07/10 10:43:40;;;;;;;2.10;0.50;;;;;;;;;;103128;1320;22535;-24
2022/07/10 10:46:23;;;;;;;1.70;0.40;;;;;;;;;;103124;1320;22602;-27
2022/07/10 10:49:03;;;;;;;3.40;0.60;;;;;;;;;;103199;1320;24290;-26
2022/07/10 10:51:36;;;;;;;1.50;0.40;;;;;;;;;;102524;1320;1003226;-30
2022/07/10 10:54:05;;;;;;;3.20;0.80;;;;;;;;;;103163;1320;25267;-30
2022/07/10 10:56:34;;;;;;;5.20;0.20;;;;;;;;;;103337;1328;24345;-27
2022/07/10 10:59:03;;;;;;;6.40;0.60;;;;;;;;;;103324;1320;22824;-30
2022/07/10 11:01:32;;;;;;;1.20;0.40;;;;;;;;;;103231;1313;22722;-26
2022/07/10 11:04:05;;;;;;;0.50;0.20;;;;;;;;;;103245;1320;22564;-30
2022/07/10 11:06:38;;;;;;;2.00;0.40;;;;;;;;;;103115;1322;22820;-24
2022/07/10 11:09:10;;;;;;;1.30;0.20;;;;;;;;;;103208;1320;22546;-25
2022/07/10 11:11:40;;;;;;;1.20;0.20;;;;;;;;;;103161;1320;22976;-28
2022/07/10 11:14:09;;;;;;;1.10;0.70;;;;;;;;;;103129;1326;22871;-29
2022/07/10 11:16:38;;;;;;;2.30;0.50;;;;;;;;;;103153;1314;22571;-24
2022/07/10 11:19:07;;;;;;;1.80;0.30;;;;;;;;;;103256;1320;23172;-30
2022/07/10 11:21:41;;;;;;;0.90;0.30;;;;;;;;;;103157;1314;22564;-26
2022/07/10 11:24:11;;;;;;;0.70;0.20;;;;;;;;;;103162;1322;22592;-24
2022/07/10 11:26:44;;;;;;;1.60;0.30;;;;;;;;;;103119;1323;22567;-26
2022/07/10 11:29:22;;;;;;;1.30;0.40;;;;;;;;;;103208;1314;22576;-28
2022/07/10 11:31:59;;;;;;;1.40;0.10;;;;;;;;;;103192;1321;22577;-29
2022/07/10 11:34:36;;;;;;;1.10;0.20;;;;;;;;;;103271;1315;22547;-25
2022/07/10 11:37:09;;;;;;;7.60;0.30;;;;;;;;;;103119;1323;22630;-28
2022/07/10 11:39:37;;;;;;;0.80;0.50;;;;;;;;;;103269;1320;22726;-29
2022/07/10 11:42:06;;;;;;;1.90;0.90;;;;;;;;;;103191;1323;22790;-26
2022/07/10 11:44:35;;;;;;;2.80;0.90;;;;;;;;;;103167;1314;22708;-23
2022/07/10 11:47:05;;;;;;;0.40;0.20;;;;;;;;;;103201;1323;22566;-24
2022/07/10 11:49:34;;;;;;;0.00;0.00;;;;;;;;;;103240;1320;22555;-29
2022/07/10 11:52:03;;;;;;;0.10;0.10;;;;;;;;;;103253;1320;22726;-25
2022/07/10 11:54:32;;;;;;;0.00;0.00;;;;;;;;;;103127;1320;22481;-31
2022/07/10 11:57:04;;;;;;;0.90;0.30;;;;;;;;;;103167;1326;22721;-24
2022/07/10 11:59:33;;;;;;;0.70;0.10;;;;;;;;;;103178;1320;22718;-25
2022/07/10 12:02:02;;;;;;;1.30;0.60;;;;;;;;;;103316;1313;22681;-25
2022/07/10 12:04:31;;;;;;;2.90;0.40;;;;;;;;;;102739;1317;644893;-25
2022/07/10 12:07:00;;;;;;;0.70;0.30;;;;;;;;;;103046;1323;22723;-29
2022/07/10 12:09:29;;;;;;;2.50;0.50;;;;;;;;;;103365;1313;22724;-25
2022/07/10 12:12:01;;;;;;;0.10;0.00;;;;;;;;;;103187;1323;22719;-25
2022/07/10 12:14:30;;;;;;;1.40;0.30;;;;;;;;;;103170;1308;22546;-31
2022/07/10 12:16:59;;;;;;;0.30;0.10;;;;;;;;;;103196;1323;22847;-30
2022/07/10 12:19:30;;;;;;;3.00;0.70;;;;;;;;;;103179;1320;25305;-30
2022/07/10 12:22:00;;;;;;;1.00;0.20;;;;;;;;;;103191;1320;25355;-25
2022/07/10 12:24:29;;;;;;;0.30;0.10;;;;;;;;;;103174;1320;22864;-28
2022/07/10 12:26:58;;;;;;;0.70;0.10;;;;;;;;;;103127;1320;22650;-24
2022/07/10 12:29:28;;;;;;;0.10;0.00;;;;;;;;;;103099;1320;22577;-29
2022/07/10 12:31:57;;;;;;;0.00;0.00;;;;;;;;;;103114;1320;22822;-24
2022/07/10 12:34:30;;;;;;;1.00;0.20;;;;;;;;;;103225;1320;22820;-27
2022/07/10 12:36:59;;;;;;;1.80;0.20;;;;;;;;;;103142;1322;25305;-27
2022/07/10 12:39:27;;;;;;;1.90;1.10;;;;;;;;;;103137;1313;22568;-29
2022/07/10 12:41:58;;;;;;;0.40;0.10;;;;;;;;;;103283;1313;22575;-29
2022/07/10 12:44:30;;;;;;;0.60;0.20;;;;;;;;;;103121;1320;22571;-28
2022/07/10 12:47:00;;;;;;;1.10;0.00;;;;;;;;;;103186;1320;22765;-26
2022/07/10 12:49:28;;;;;;;1.60;0.30;;;;;;;;;;103156;1320;22575;-26
2022/07/10 12:51:57;;;;;;;0.90;0.40;;;;;;;;;;103287;1323;22716;-28
2022/07/10 12:54:29;;;;;;;0.50;0.40;;;;;;;;;;103120;1320;22832;-24
2022/07/10 12:56:58;;;;;;;0.40;0.20;;;;;;;;;;103141;1320;22965;-25
2022/07/10 12:59:28;;;;;;;1.20;0.20;;;;;;;;;;103132;1314;22736;-30
2022/07/10 13:01:58;;;;;;;1.30;0.30;;;;;;;;;;103170;1320;22540;-30
2022/07/10 13:04:35;;;;;;;0.30;0.00;;;;;;;;;;103198;1320;22778;-29
2022/07/10 13:07:13;;;;;;;1.60;0.50;;;;;;;;;;103098;1314;22724;-31
2022/07/10 13:09:44;;;;;;;0.20;0.10;;;;;;;;;;103179;1320;22578;-26
2022/07/10 13:12:13;;;;;;;0.10;0.10;;;;;;;;;;103081;1325;22699;-26
2022/07/10 13:14:41;;;;;;;0.70;0.20;;;;;;;;;;103042;1323;22572;-29
2022/07/10 13:17:10;;;;;;;0.30;0.10;;;;;;;;;;103151;1324;22577;-25
2022/07/10 13:19:39;;;;;;;0.00;0.00;;;;;;;;;;103254;1323;22572;-23
2022/07/10 13:22:08;;;;;;;1.20;0.20;;;;;;;;;;103156;1325;23172;-25
2022/07/10 13:24:37;;;;;;;1.50;0.20;;;;;;;;;;103188;1313;22958;-27
2022/07/10 13:27:05;;;;;;;0.30;0.20;;;;;;;;;;103134;1323;22909;-30
2022/07/10 13:29:34;;;;;;;0.40;0.20;;;;;;;;;;103156;1324;22578;-29
2022/07/10 13:32:03;;;;;;;1.20;0.20;;;;;;;;;;103218;1326;22565;-24
2022/07/10 13:34:32;;;;;;;0.80;0.30;;;;;;;;;;103184;1313;22985;-25
2022/07/10 13:37:01;;;;;;;0.70;0.10;;;;;;;;;;103195;1323;22606;-25
2022/07/10 13:39:29;;;;;;;1.60;0.20;;;;;;;;;;103238;1313;22694;-29
2022/07/10 13:42:07;;;;;;;0.80;0.40;;;;;;;;;;103107;1323;22578;-26
2022/07/10 13:44:35;;;;;;;3.10;0.30;;;;;;;;;;103126;1314;22921;-28
2022/07/10 13:47:04;;;;;;;2.00;0.50;;;;;;;;;;103213;1323;22716;-29
2022/07/10 13:49:33;;;;;;;0.10;0.10;;;;;;;;;;103251;1320;22906;-25
2022/07/10 13:52:02;;;;;;;0.60;0.10;;;;;;;;;;103109;1323;22704;-25
2022/07/10 13:54:31;;;;;;;1.70;0.20;;;;;;;;;;103070;1313;24220;-25
2022/07/10 13:57:01;;;;;;;0.50;0.20;;;;;;;;;;103123;1328;25289;-29
2022/07/10 13:59:30;;;;;;;2.20;0.30;;;;;;;;;;103223;1315;22860;-25
2022/07/10 14:01:59;;;;;;;0.60;0.10;;;;;;;;;;103191;1322;22854;-25
2022/07/10 14:04:28;;;;;;;0.60;0.10;;;;;;;;;;103112;1313;22862;-27
2022/07/10 14:06:56;;;;;;;0.60;0.30;;;;;;;;;;103176;1323;22847;-25
2022/07/10 14:09:26;;;;;;;3.60;0.50;;;;;;;;;;103096;1313;22571;-24
2022/07/10 14:11:54;;;;;;;4.80;0.40;;;;;;;;;;103167;1327;23008;-25
2022/07/10 14:14:23;;;;;;;0.10;0.10;;;;;;;;;;103114;1313;22860;-29
2022/07/10 14:16:52;;;;;;;1.00;0.30;;;;;;;;;;103236;1325;24873;-29
2022/07/10 14:19:21;;;;;;;1.00;0.10;;;;;;;;;;103152;1313;22562;-24
2022/07/10 14:21:50;;;;;;;0.20;0.10;;;;;;;;;;103153;1320;22970;-25
2022/07/10 14:24:18;;;;;;;0.80;0.20;;;;;;;;;;103221;1315;22685;-29
2022/07/10 14:26:47;;;;;;;8.30;0.10;;;;;;;;;;103274;1320;22864;-29
2022/07/10 14:29:16;;;;;;;0.30;0.10;;;;;;;;;;103242;1313;22626;-30
2022/07/10 14:31:48;;;;;;;4.70;0.30;;;;;;;;;;103116;1321;22857;-31
2022/07/10 14:34:17;;;;;;;0.10;0.10;;;;;;;;;;103131;1326;22867;-25
2022/07/10 14:36:46;;;;;;;0.00;0.00;;;;;;;;;;103185;1314;22742;-29
2022/07/10 14:39:15;;;;;;;0.70;0.30;;;;;;;;;;103140;1323;22568;-24
2022/07/10 14:41:44;;;;;;;0.50;0.10;;;;;;;;;;103090;1320;22840;-23
2022/07/10 14:44:21;;;;;;;0.20;0.20;;;;;;;;;;103061;1323;22921;-25
2022/07/10 14:46:50;;;;;;;0.90;0.20;;;;;;;;;;103124;1314;22681;-27
2022/07/10 14:49:18;;;;;;;4.10;0.30;;;;;;;;;;103111;1313;22723;-23